createdAt,value
2018-07-20T00:01:41.233Z,0.00
2018-07-20T00:02:41.126Z,0.00
2018-07-20T00:04:34.071Z,0.00
2018-07-20T00:05:33.972Z,0.00
2018-07-20T00:07:26.914Z,0.00
2018-07-20T00:08:26.818Z,0.00
2018-07-20T00:10:19.773Z,0.00
2018-07-20T00:11:19.663Z,0.00
2018-07-20T00:13:12.623Z,0.00
2018-07-20T00:14:12.520Z,0.00
2018-07-20T00:16:05.468Z,0.00
2018-07-20T00:17:05.375Z,0.00
2018-07-20T00:18:58.457Z,0.00
2018-07-20T00:19:58.236Z,0.00
2018-07-20T00:21:51.204Z,0.00
2018-07-20T00:22:51.105Z,0.00
2018-07-20T00:24:44.031Z,0.00
2018-07-20T00:25:43.928Z,0.00
2018-07-20T00:27:36.870Z,0.00
2018-07-20T00:28:36.799Z,0.00
2018-07-20T00:30:30.176Z,0.00
2018-07-20T00:31:29.629Z,0.00
2018-07-20T00:33:22.590Z,0.00
2018-07-20T00:34:22.481Z,0.00
2018-07-20T00:36:15.441Z,0.00
2018-07-20T00:37:15.374Z,0.00
2018-07-20T00:39:08.311Z,0.00
2018-07-20T00:40:08.199Z,0.00
2018-07-20T00:42:01.130Z,0.00
2018-07-20T00:43:01.033Z,0.00
2018-07-20T00:44:54.007Z,0.00
2018-07-20T00:45:53.882Z,0.00
2018-07-20T00:47:46.875Z,0.00
2018-07-20T00:48:46.740Z,0.00
2018-07-20T00:50:39.714Z,0.00
2018-07-20T00:51:39.588Z,0.00
2018-07-20T00:53:32.533Z,0.00
2018-07-20T00:54:32.459Z,0.00
2018-07-20T00:56:25.421Z,0.00
2018-07-20T00:57:25.292Z,0.00
2018-07-20T00:59:18.238Z,0.00
2018-07-20T01:00:18.151Z,0.00
2018-07-20T01:02:11.361Z,0.00
2018-07-20T01:03:11.200Z,0.00
2018-07-20T01:05:04.063Z,0.00
2018-07-20T01:06:03.953Z,0.00
2018-07-20T01:07:56.818Z,0.00
2018-07-20T01:08:56.730Z,0.00
2018-07-20T01:10:49.546Z,0.00
2018-07-20T01:11:49.465Z,0.00
2018-07-20T01:13:42.347Z,0.00
2018-07-20T01:14:42.194Z,0.00
2018-07-20T01:16:35.058Z,0.00
2018-07-20T01:17:34.948Z,0.00
2018-07-20T01:19:27.789Z,0.00
2018-07-20T01:20:27.701Z,0.00
2018-07-20T01:22:20.570Z,0.00
2018-07-20T01:23:20.460Z,0.00
2018-07-20T01:25:13.292Z,0.00
2018-07-20T01:26:13.200Z,0.00
2018-07-20T01:28:06.182Z,0.00
2018-07-20T01:29:06.046Z,0.00
2018-07-20T01:30:58.897Z,0.00
2018-07-20T01:31:58.801Z,0.00
2018-07-20T01:33:51.664Z,0.00
2018-07-20T01:34:51.553Z,0.00
2018-07-20T01:36:44.831Z,0.00
2018-07-20T01:37:44.728Z,0.00
2018-07-20T01:39:37.563Z,0.00
2018-07-20T01:40:37.456Z,0.00
2018-07-20T01:42:30.306Z,0.00
2018-07-20T01:43:30.256Z,0.00
2018-07-20T01:45:23.061Z,0.00
2018-07-20T01:46:22.972Z,0.00
2018-07-20T01:48:15.826Z,0.00
2018-07-20T01:49:15.714Z,0.00
2018-07-20T01:51:08.593Z,0.00
2018-07-20T01:52:08.496Z,0.00
2018-07-20T01:54:01.300Z,0.00
2018-07-20T01:55:01.228Z,0.00
2018-07-20T01:56:54.061Z,0.00
2018-07-20T01:57:53.982Z,0.00
2018-07-20T01:59:46.814Z,0.00
2018-07-20T02:00:46.717Z,0.00
2018-07-20T02:02:39.583Z,0.00
2018-07-20T02:03:39.461Z,0.00
2018-07-20T02:05:32.324Z,0.00
2018-07-20T02:06:32.224Z,0.00
2018-07-20T02:08:25.050Z,0.00
2018-07-20T02:09:24.988Z,0.00
2018-07-20T02:11:17.801Z,0.00
2018-07-20T02:12:17.699Z,0.00
2018-07-20T02:14:10.584Z,0.00
2018-07-20T02:15:10.454Z,0.00
2018-07-20T02:17:03.297Z,0.00
2018-07-20T02:18:03.210Z,0.00
2018-07-20T02:19:56.066Z,0.00
2018-07-20T02:20:55.947Z,0.00
2018-07-20T02:22:48.796Z,0.00
2018-07-20T02:23:48.697Z,0.00
2018-07-20T02:25:41.551Z,0.00
2018-07-20T02:26:41.453Z,0.00
2018-07-20T02:28:34.290Z,0.00
2018-07-20T02:29:34.294Z,0.00
2018-07-20T02:31:27.062Z,0.00
2018-07-20T02:32:26.953Z,0.00
2018-07-20T02:34:19.801Z,0.00
2018-07-20T02:35:19.718Z,0.00
2018-07-20T02:37:12.554Z,0.00
2018-07-20T02:38:12.451Z,0.00
2018-07-20T02:40:05.290Z,0.00
2018-07-20T02:41:05.192Z,0.00
2018-07-20T02:42:58.057Z,0.00
2018-07-20T02:43:57.957Z,0.00
2018-07-20T02:45:50.827Z,0.00
2018-07-20T02:46:50.704Z,0.00
2018-07-20T02:48:43.558Z,0.00
2018-07-20T02:49:43.445Z,0.00
2018-07-20T02:51:36.294Z,4.00
2018-07-20T02:52:36.193Z,4.00
2018-07-20T02:54:29.058Z,0.00
2018-07-20T02:55:28.953Z,0.00
2018-07-20T02:57:21.808Z,4.00
2018-07-20T02:58:21.692Z,0.00
2018-07-20T03:00:14.531Z,4.00
2018-07-20T03:01:14.446Z,4.00
2018-07-20T03:03:07.297Z,4.00
2018-07-20T03:04:07.197Z,8.00
2018-07-20T03:06:00.065Z,8.00
2018-07-20T03:06:59.957Z,8.00
2018-07-20T03:08:52.929Z,12.00
2018-07-20T03:09:52.692Z,12.00
2018-07-20T03:11:45.545Z,16.00
2018-07-20T03:12:45.461Z,16.00
2018-07-20T03:14:38.318Z,20.00
2018-07-20T03:15:38.236Z,20.00
2018-07-20T03:17:31.075Z,24.00
2018-07-20T03:18:30.949Z,28.00
2018-07-20T03:20:23.826Z,32.00
2018-07-20T03:21:23.929Z,36.00
2018-07-20T03:23:18.044Z,40.00
2018-07-20T03:24:16.444Z,48.00
2018-07-20T03:26:09.310Z,52.00
2018-07-20T03:27:09.219Z,56.00
2018-07-20T03:29:02.088Z,60.00
2018-07-20T03:30:01.942Z,68.00
2018-07-20T03:31:54.830Z,76.00
2018-07-20T03:32:54.782Z,80.00
2018-07-20T03:34:47.532Z,88.00
2018-07-20T03:35:47.435Z,92.00
2018-07-20T03:37:40.300Z,100.00
2018-07-20T03:38:40.207Z,108.00
2018-07-20T03:40:33.026Z,116.00
2018-07-20T03:41:32.934Z,120.00
2018-07-20T03:43:25.815Z,132.00
2018-07-20T03:44:25.693Z,136.00
2018-07-20T03:46:18.552Z,148.00
2018-07-20T03:47:18.441Z,156.00
2018-07-20T03:49:11.297Z,172.00
2018-07-20T03:50:11.185Z,176.00
2018-07-20T03:52:04.595Z,188.00
2018-07-20T03:53:04.466Z,196.00
2018-07-20T03:54:57.289Z,212.00
2018-07-20T03:55:57.194Z,220.00
2018-07-20T03:57:50.048Z,232.00
2018-07-20T03:58:49.943Z,240.00
2018-07-20T04:00:43.322Z,256.00
2018-07-20T04:01:43.209Z,264.00
2018-07-20T04:03:36.092Z,284.00
2018-07-20T04:04:35.958Z,292.00
2018-07-20T04:06:28.800Z,304.00
2018-07-20T04:07:28.736Z,316.00
2018-07-20T04:09:21.578Z,328.00
2018-07-20T04:10:21.510Z,336.00
2018-07-20T04:12:14.311Z,352.00
2018-07-20T04:13:14.214Z,364.00
2018-07-20T04:15:07.077Z,380.00
2018-07-20T04:16:06.953Z,396.00
2018-07-20T04:17:59.719Z,416.00
2018-07-20T04:18:59.607Z,428.00
2018-07-20T04:20:52.365Z,444.00
2018-07-20T04:21:52.276Z,456.00
2018-07-20T04:23:45.137Z,480.00
2018-07-20T04:24:45.003Z,492.00
2018-07-20T04:26:37.853Z,512.00
2018-07-20T04:27:37.755Z,524.00
2018-07-20T04:29:30.513Z,544.00
2018-07-20T04:30:30.401Z,556.00
2018-07-20T04:32:23.263Z,576.00
2018-07-20T04:33:23.153Z,588.00
2018-07-20T04:35:15.888Z,608.00
2018-07-20T04:36:15.808Z,616.00
2018-07-20T04:38:08.655Z,636.00
2018-07-20T04:39:08.553Z,644.00
2018-07-20T04:41:01.408Z,668.00
2018-07-20T04:42:01.296Z,684.00
2018-07-20T04:43:54.143Z,708.00
2018-07-20T04:44:53.955Z,724.00
2018-07-20T04:46:46.805Z,752.00
2018-07-20T04:47:46.689Z,764.00
2018-07-20T04:49:39.531Z,792.00
2018-07-20T04:50:39.442Z,808.00
2018-07-20T04:52:32.313Z,828.00
2018-07-20T04:53:32.216Z,840.00
2018-07-20T04:55:24.956Z,864.00
2018-07-20T04:56:24.857Z,880.00
2018-07-20T04:58:17.602Z,900.00
2018-07-20T04:59:17.484Z,912.00
2018-07-20T05:01:10.373Z,936.00
2018-07-20T05:02:10.248Z,952.00
2018-07-20T05:04:03.510Z,976.00
2018-07-20T05:05:03.413Z,988.00
2018-07-20T05:06:56.261Z,1008.00
2018-07-20T05:07:56.161Z,1020.00
2018-07-20T05:09:49.492Z,1040.00
2018-07-20T05:10:49.302Z,1052.00
2018-07-20T05:12:42.156Z,1064.00
2018-07-20T05:13:42.050Z,1076.00
2018-07-20T05:15:34.891Z,1096.00
2018-07-20T05:16:34.811Z,1116.00
2018-07-20T05:18:27.580Z,1148.00
2018-07-20T05:19:27.459Z,1152.00
2018-07-20T05:21:20.289Z,1196.00
2018-07-20T05:22:20.197Z,1204.00
2018-07-20T05:24:13.040Z,1212.00
2018-07-20T05:25:12.885Z,1224.00
2018-07-20T05:27:05.701Z,1228.00
2018-07-20T05:28:05.610Z,1236.00
2018-07-20T05:29:58.343Z,1272.00
2018-07-20T05:30:58.303Z,1284.00
2018-07-20T05:32:51.604Z,1320.00
2018-07-20T05:33:51.526Z,1344.00
2018-07-20T05:35:44.773Z,1368.00
2018-07-20T05:36:44.153Z,1384.00
2018-07-20T05:38:37.420Z,1424.00
2018-07-20T05:39:37.324Z,1444.00
2018-07-20T05:41:30.071Z,1468.00
2018-07-20T05:42:29.963Z,1480.00
2018-07-20T05:44:22.745Z,1500.00
2018-07-20T05:45:22.618Z,1504.00
2018-07-20T05:47:15.484Z,1524.00
2018-07-20T05:48:15.350Z,1536.00
2018-07-20T05:50:08.122Z,1556.00
2018-07-20T05:51:08.024Z,1548.00
2018-07-20T05:53:00.862Z,1596.00
2018-07-20T05:54:00.764Z,1600.00
2018-07-20T05:55:53.516Z,1600.00
2018-07-20T05:56:53.423Z,1624.00
2018-07-20T05:58:46.298Z,1644.00
2018-07-20T05:59:46.159Z,1656.00
2018-07-20T06:01:39.016Z,1684.00
2018-07-20T06:02:38.805Z,1688.00
2018-07-20T06:04:31.658Z,1720.00
2018-07-20T06:05:31.544Z,1724.00
2018-07-20T06:07:24.404Z,1720.00
2018-07-20T06:08:24.297Z,1732.00
2018-07-20T06:10:17.138Z,1768.00
2018-07-20T06:11:17.058Z,1776.00
2018-07-20T06:13:09.938Z,1800.00
2018-07-20T06:14:09.848Z,1808.00
2018-07-20T06:16:02.535Z,1812.00
2018-07-20T06:17:02.456Z,1832.00
2018-07-20T06:18:55.735Z,1860.00
2018-07-20T06:19:55.693Z,1872.00
2018-07-20T06:21:48.458Z,1896.00
2018-07-20T06:22:48.350Z,1900.00
2018-07-20T06:24:41.215Z,1924.00
2018-07-20T06:25:41.118Z,1944.00
2018-07-20T06:27:37.078Z,1968.00
2018-07-20T06:28:37.010Z,1972.00
2018-07-20T06:30:30.788Z,2000.00
2018-07-20T06:31:30.700Z,2008.00
2018-07-20T06:33:23.557Z,2024.00
2018-07-20T06:34:23.447Z,2032.00
2018-07-20T06:36:16.293Z,2064.00
2018-07-20T06:37:16.207Z,2088.00
2018-07-20T06:39:09.046Z,2108.00
2018-07-20T06:40:08.955Z,2120.00
2018-07-20T06:42:01.734Z,2144.00
2018-07-20T06:43:01.596Z,2152.00
2018-07-20T06:44:54.452Z,2164.00
2018-07-20T06:45:54.352Z,2180.00
2018-07-20T06:47:47.217Z,2196.00
2018-07-20T06:48:47.096Z,2212.00
2018-07-20T06:50:39.946Z,2236.00
2018-07-20T06:51:39.848Z,2252.00
2018-07-20T06:53:32.703Z,2272.00
2018-07-20T06:54:32.587Z,2268.00
2018-07-20T06:56:25.457Z,2304.00
2018-07-20T06:57:25.368Z,2320.00
2018-07-20T06:59:18.201Z,2348.00
2018-07-20T07:00:18.089Z,2356.00
2018-07-20T07:02:12.371Z,2388.00
2018-07-20T07:03:10.842Z,2400.00
2018-07-20T07:05:03.711Z,2428.00
2018-07-20T07:06:03.590Z,2444.00
2018-07-20T07:07:56.438Z,2448.00
2018-07-20T07:08:56.338Z,2472.00
2018-07-20T07:10:49.198Z,2496.00
2018-07-20T07:11:49.096Z,2500.00
2018-07-20T07:13:41.935Z,2512.00
2018-07-20T07:14:41.848Z,2524.00
2018-07-20T07:16:34.700Z,2572.00
2018-07-20T07:17:34.584Z,2588.00
2018-07-20T07:19:27.486Z,2628.00
2018-07-20T07:20:27.394Z,2632.00
2018-07-20T07:22:20.753Z,2640.00
2018-07-20T07:23:20.621Z,2640.00
2018-07-20T07:25:13.456Z,2672.00
2018-07-20T07:26:13.358Z,2688.00
2018-07-20T07:28:06.201Z,2744.00
2018-07-20T07:29:06.110Z,2776.00
2018-07-20T07:30:58.954Z,2804.00
2018-07-20T07:31:58.851Z,2816.00
2018-07-20T07:33:51.700Z,2832.00
2018-07-20T07:34:51.654Z,2856.00
2018-07-20T07:36:44.467Z,2856.00
2018-07-20T07:37:44.367Z,2848.00
2018-07-20T07:39:37.244Z,2840.00
2018-07-20T07:40:37.097Z,2888.00
2018-07-20T07:42:29.958Z,2888.00
2018-07-20T07:43:29.866Z,2960.00
2018-07-20T07:45:22.706Z,2892.00
2018-07-20T07:46:22.596Z,2960.00
2018-07-20T07:48:15.438Z,2960.00
2018-07-20T07:49:15.434Z,2960.00
2018-07-20T07:51:08.210Z,3004.00
2018-07-20T07:52:08.115Z,3024.00
2018-07-20T07:54:00.993Z,3068.00
2018-07-20T07:55:00.844Z,2988.00
2018-07-20T07:56:53.703Z,2276.00
2018-07-20T07:57:53.600Z,2388.00
2018-07-20T07:59:46.449Z,2644.00
2018-07-20T08:00:46.368Z,2520.00
2018-07-20T08:02:39.179Z,2316.00
2018-07-20T08:03:39.107Z,2448.00
2018-07-20T08:05:32.478Z,2980.00
2018-07-20T08:06:31.860Z,2496.00
2018-07-20T08:08:24.702Z,2880.00
2018-07-20T08:09:24.612Z,3644.00
2018-07-20T08:11:17.453Z,3456.00
2018-07-20T08:12:17.364Z,2760.00
2018-07-20T08:14:10.184Z,3072.00
2018-07-20T08:15:10.116Z,2620.00
2018-07-20T08:17:02.945Z,2816.00
2018-07-20T08:18:02.850Z,3796.00
2018-07-20T08:19:55.708Z,2788.00
2018-07-20T08:20:55.598Z,2568.00
2018-07-20T08:22:48.480Z,2524.00
2018-07-20T08:23:48.389Z,2536.00
2018-07-20T08:25:41.228Z,3064.00
2018-07-20T08:26:41.116Z,3128.00
2018-07-20T08:28:34.851Z,2544.00
2018-07-20T08:29:34.855Z,2516.00
2018-07-20T08:31:27.763Z,2496.00
2018-07-20T08:32:27.562Z,2484.00
2018-07-20T08:34:20.362Z,2496.00
2018-07-20T08:35:20.271Z,2536.00
2018-07-20T08:37:13.635Z,2492.00
2018-07-20T08:38:13.522Z,2540.00
2018-07-20T08:40:06.437Z,2660.00
2018-07-20T08:41:06.326Z,3336.00
2018-07-20T08:42:59.140Z,4116.00
2018-07-20T08:43:59.024Z,3840.00
2018-07-20T08:45:51.910Z,3244.00
2018-07-20T08:46:51.773Z,4116.00
2018-07-20T08:48:44.613Z,2960.00
2018-07-20T08:49:44.526Z,2836.00
2018-07-20T08:51:37.376Z,2788.00
2018-07-20T08:52:37.791Z,2708.00
2018-07-20T08:54:30.126Z,2644.00
2018-07-20T08:55:30.018Z,2620.00
2018-07-20T08:57:22.916Z,2676.00
2018-07-20T08:58:22.771Z,2648.00
2018-07-20T09:00:15.645Z,2660.00
2018-07-20T09:01:15.524Z,3060.00
2018-07-20T09:03:08.381Z,2636.00
2018-07-20T09:04:08.269Z,2692.00
2018-07-20T09:06:01.110Z,3300.00
2018-07-20T09:07:01.020Z,3000.00
2018-07-20T09:08:53.873Z,4520.00
2018-07-20T09:09:53.782Z,4060.00
2018-07-20T09:11:46.639Z,2948.00
2018-07-20T09:12:46.528Z,4472.00
2018-07-20T09:14:39.371Z,4376.00
2018-07-20T09:15:39.268Z,4360.00
2018-07-20T09:17:32.119Z,4412.00
2018-07-20T09:18:32.020Z,4424.00
2018-07-20T09:20:24.899Z,4496.00
2018-07-20T09:21:24.772Z,4508.00
2018-07-20T09:23:17.657Z,4504.00
2018-07-20T09:24:17.525Z,4476.00
2018-07-20T09:26:10.374Z,2880.00
2018-07-20T09:27:10.276Z,3028.00
2018-07-20T09:29:03.128Z,4352.00
2018-07-20T09:30:03.017Z,4384.00
2018-07-20T09:31:55.880Z,4464.00
2018-07-20T09:32:55.779Z,4436.00
2018-07-20T09:34:48.649Z,4616.00
2018-07-20T09:35:48.533Z,4704.00
2018-07-20T09:37:41.353Z,4620.00
2018-07-20T09:38:41.287Z,2912.00
2018-07-20T09:40:34.119Z,3536.00
2018-07-20T09:41:34.025Z,2880.00
2018-07-20T09:43:26.886Z,3512.00
2018-07-20T09:44:26.797Z,2884.00
2018-07-20T09:46:19.612Z,3496.00
2018-07-20T09:47:19.532Z,3672.00
2018-07-20T09:49:12.366Z,2732.00
2018-07-20T09:50:12.270Z,2660.00
2018-07-20T09:52:05.109Z,2668.00
2018-07-20T09:53:05.020Z,2656.00
2018-07-20T09:54:57.886Z,2864.00
2018-07-20T09:55:57.772Z,4256.00
2018-07-20T09:57:50.633Z,3164.00
2018-07-20T09:58:50.538Z,2952.00
2018-07-20T10:00:43.884Z,3016.00
2018-07-20T10:01:43.786Z,3080.00
2018-07-20T10:03:36.640Z,3216.00
2018-07-20T10:04:36.537Z,4164.00
2018-07-20T10:06:29.383Z,4480.00
2018-07-20T10:07:29.308Z,3268.00
2018-07-20T10:09:22.116Z,3312.00
2018-07-20T10:10:22.035Z,3288.00
2018-07-20T10:12:14.919Z,3168.00
2018-07-20T10:13:14.776Z,3228.00
2018-07-20T10:15:07.639Z,4804.00
2018-07-20T10:16:07.539Z,4848.00
2018-07-20T10:18:00.365Z,4872.00
2018-07-20T10:19:00.306Z,4916.00
2018-07-20T10:20:53.169Z,4872.00
2018-07-20T10:21:53.052Z,4820.00
2018-07-20T10:23:45.866Z,4600.00
2018-07-20T10:24:45.789Z,4548.00
2018-07-20T10:26:38.646Z,4488.00
2018-07-20T10:27:38.550Z,3648.00
2018-07-20T10:29:31.378Z,4372.00
2018-07-20T10:30:31.322Z,4284.00
2018-07-20T10:32:24.242Z,3632.00
2018-07-20T10:33:24.051Z,3384.00
2018-07-20T10:35:16.877Z,3324.00
2018-07-20T10:36:16.805Z,3620.00
2018-07-20T10:38:09.769Z,3264.00
2018-07-20T10:39:09.633Z,3264.00
2018-07-20T10:41:02.478Z,3344.00
2018-07-20T10:42:02.388Z,3548.00
2018-07-20T10:43:55.232Z,4732.00
2018-07-20T10:44:55.122Z,4776.00
2018-07-20T10:46:47.989Z,4980.00
2018-07-20T10:47:47.915Z,4732.00
2018-07-20T10:49:40.737Z,3656.00
2018-07-20T10:50:40.640Z,3616.00
2018-07-20T10:52:33.476Z,3348.00
2018-07-20T10:53:33.379Z,3256.00
2018-07-20T10:55:26.209Z,3768.00
2018-07-20T10:56:26.153Z,3356.00
2018-07-20T10:58:18.973Z,3944.00
2018-07-20T10:59:18.882Z,3316.00
2018-07-20T11:01:11.704Z,3256.00
2018-07-20T11:02:11.654Z,3684.00
2018-07-20T11:04:04.471Z,3440.00
2018-07-20T11:05:04.375Z,3784.00
2018-07-20T11:06:57.237Z,3288.00
2018-07-20T11:07:57.163Z,3240.00
2018-07-20T11:09:49.977Z,3220.00
2018-07-20T11:10:49.881Z,3228.00
2018-07-20T11:12:42.787Z,3208.00
2018-07-20T11:13:42.680Z,3248.00
2018-07-20T11:15:35.990Z,3532.00
2018-07-20T11:16:35.413Z,3480.00
2018-07-20T11:18:28.236Z,3616.00
2018-07-20T11:19:28.151Z,4064.00
2018-07-20T11:21:20.985Z,3824.00
2018-07-20T11:22:20.876Z,3636.00
2018-07-20T11:24:13.761Z,3564.00
2018-07-20T11:25:13.626Z,3568.00
2018-07-20T11:27:06.476Z,3684.00
2018-07-20T11:28:06.432Z,3784.00
2018-07-20T11:29:59.243Z,3896.00
2018-07-20T11:30:59.129Z,4360.00
2018-07-20T11:32:51.972Z,5144.00
2018-07-20T11:33:51.869Z,5244.00
2018-07-20T11:35:44.718Z,4140.00
2018-07-20T11:36:44.630Z,5340.00
2018-07-20T11:38:37.446Z,4760.00
2018-07-20T11:39:37.393Z,4108.00
2018-07-20T11:41:30.232Z,4148.00
2018-07-20T11:42:30.133Z,4936.00
2018-07-20T11:44:22.963Z,4852.00
2018-07-20T11:45:22.876Z,4740.00
2018-07-20T11:47:15.742Z,4696.00
2018-07-20T11:48:15.616Z,4516.00
2018-07-20T11:50:08.470Z,4432.00
2018-07-20T11:51:08.365Z,4184.00
2018-07-20T11:53:01.211Z,3648.00
2018-07-20T11:54:01.118Z,3636.00
2018-07-20T11:55:54.011Z,3632.00
2018-07-20T11:56:53.873Z,3608.00
2018-07-20T11:58:46.733Z,3576.00
2018-07-20T11:59:46.632Z,3596.00
2018-07-20T12:01:39.481Z,3660.00
2018-07-20T12:02:39.367Z,3708.00
2018-07-20T12:04:32.204Z,3692.00
2018-07-20T12:05:32.118Z,3736.00
2018-07-20T12:07:24.968Z,3808.00
2018-07-20T12:08:24.871Z,3948.00
2018-07-20T12:10:17.724Z,4140.00
2018-07-20T12:11:17.619Z,4364.00
2018-07-20T12:13:10.473Z,4412.00
2018-07-20T12:14:10.377Z,4536.00
2018-07-20T12:16:03.225Z,4876.00
2018-07-20T12:17:03.109Z,4896.00
2018-07-20T12:18:55.962Z,4728.00
2018-07-20T12:19:55.889Z,4752.00
2018-07-20T12:21:48.836Z,4864.00
2018-07-20T12:22:48.706Z,4704.00
2018-07-20T12:24:41.477Z,4288.00
2018-07-20T12:25:41.394Z,4144.00
2018-07-20T12:27:39.188Z,4056.00
2018-07-20T12:28:38.224Z,4000.00
2018-07-20T12:30:32.001Z,3900.00
2018-07-20T12:31:31.913Z,4012.00
2018-07-20T12:33:24.730Z,4112.00
2018-07-20T12:34:24.646Z,4116.00
2018-07-20T12:36:17.490Z,4532.00
2018-07-20T12:37:17.689Z,4724.00
2018-07-20T12:39:10.249Z,4968.00
2018-07-20T12:40:10.152Z,4924.00
2018-07-20T12:42:03.024Z,5196.00
2018-07-20T12:43:02.910Z,5016.00
2018-07-20T12:44:55.737Z,4916.00
2018-07-20T12:45:55.631Z,5160.00
2018-07-20T12:47:48.480Z,4964.00
2018-07-20T12:48:48.377Z,5016.00
2018-07-20T12:50:41.226Z,4716.00
2018-07-20T12:51:41.134Z,4860.00
2018-07-20T12:53:34.049Z,4900.00
2018-07-20T12:54:33.883Z,4752.00
2018-07-20T12:56:27.221Z,4780.00
2018-07-20T12:57:27.141Z,4780.00
2018-07-20T12:59:20.496Z,4964.00
2018-07-20T13:00:20.408Z,5036.00
2018-07-20T13:02:13.231Z,5312.00
2018-07-20T13:03:13.166Z,4816.00
2018-07-20T13:05:05.988Z,4532.00
2018-07-20T13:06:05.896Z,5272.00
2018-07-20T13:07:58.766Z,5368.00
2018-07-20T13:08:58.647Z,5428.00
2018-07-20T13:10:51.474Z,5432.00
2018-07-20T13:11:51.490Z,5544.00
2018-07-20T13:13:44.243Z,5548.00
2018-07-20T13:14:44.163Z,5476.00
2018-07-20T13:16:36.989Z,5384.00
2018-07-20T13:17:36.892Z,5436.00
2018-07-20T13:19:29.750Z,5060.00
2018-07-20T13:20:29.674Z,5208.00
2018-07-20T13:22:22.502Z,5344.00
2018-07-20T13:23:22.481Z,5268.00
2018-07-20T13:25:15.269Z,5216.00
2018-07-20T13:26:15.201Z,5176.00
2018-07-20T13:28:08.044Z,5092.00
2018-07-20T13:29:07.900Z,5316.00
2018-07-20T13:31:00.787Z,5556.00
2018-07-20T13:32:00.651Z,5564.00
2018-07-20T13:33:53.497Z,5444.00
2018-07-20T13:34:53.404Z,5428.00
2018-07-20T13:36:46.224Z,5436.00
2018-07-20T13:37:46.161Z,4084.00
2018-07-20T13:39:38.996Z,5344.00
2018-07-20T13:40:38.904Z,5336.00
2018-07-20T13:42:31.780Z,5292.00
2018-07-20T13:43:31.642Z,5284.00
2018-07-20T13:45:24.535Z,4148.00
2018-07-20T13:46:24.399Z,4920.00
2018-07-20T13:48:17.236Z,4328.00
2018-07-20T13:49:17.139Z,4320.00
2018-07-20T13:51:10.016Z,4584.00
2018-07-20T13:52:09.891Z,4452.00
2018-07-20T13:54:02.755Z,3876.00
2018-07-20T13:55:02.662Z,3864.00
2018-07-20T13:56:55.479Z,4160.00
2018-07-20T13:57:55.392Z,4368.00
2018-07-20T13:59:48.234Z,4080.00
2018-07-20T14:00:48.142Z,4276.00
2018-07-20T14:02:41.047Z,4768.00
2018-07-20T14:03:40.996Z,4840.00
2018-07-20T14:05:33.764Z,4832.00
2018-07-20T14:06:33.634Z,4844.00
2018-07-20T14:08:26.467Z,4820.00
2018-07-20T14:09:26.383Z,4768.00
2018-07-20T14:11:19.273Z,4592.00
2018-07-20T14:12:19.136Z,4436.00
2018-07-20T14:14:11.981Z,4120.00
2018-07-20T14:15:11.909Z,3604.00
2018-07-20T14:17:04.730Z,3604.00
2018-07-20T14:18:04.669Z,3672.00
2018-07-20T14:19:57.489Z,3760.00
2018-07-20T14:20:57.390Z,4228.00
2018-07-20T14:22:50.344Z,4388.00
2018-07-20T14:23:50.141Z,4748.00
2018-07-20T14:25:43.004Z,4272.00
2018-07-20T14:26:42.887Z,5044.00
2018-07-20T14:28:35.836Z,4732.00
2018-07-20T14:29:35.757Z,5200.00
2018-07-20T14:31:28.726Z,5136.00
2018-07-20T14:32:28.487Z,4912.00
2018-07-20T14:34:21.349Z,5412.00
2018-07-20T14:35:21.246Z,5080.00
2018-07-20T14:37:14.137Z,5764.00
2018-07-20T14:38:13.995Z,5912.00
2018-07-20T14:40:06.821Z,5884.00
2018-07-20T14:41:06.745Z,5968.00
2018-07-20T14:42:59.719Z,5752.00
2018-07-20T14:43:59.617Z,6000.00
2018-07-20T14:45:52.441Z,5576.00
2018-07-20T14:46:52.344Z,5724.00
2018-07-20T14:48:45.195Z,5804.00
2018-07-20T14:49:45.101Z,5760.00
2018-07-20T14:51:37.930Z,5504.00
2018-07-20T14:52:37.833Z,5708.00
2018-07-20T14:54:33.645Z,5564.00
2018-07-20T14:55:33.582Z,5364.00
2018-07-20T14:57:27.020Z,5244.00
2018-07-20T14:58:26.921Z,5328.00
2018-07-20T15:00:19.762Z,5204.00
2018-07-20T15:01:19.670Z,5100.00
2018-07-20T15:03:12.911Z,4612.00
2018-07-20T15:04:12.828Z,3944.00
2018-07-20T15:06:05.684Z,3796.00
2018-07-20T15:07:05.581Z,3884.00
2018-07-20T15:08:58.408Z,3824.00
2018-07-20T15:09:58.324Z,3848.00
2018-07-20T15:11:51.700Z,3808.00
2018-07-20T15:12:51.089Z,3728.00
2018-07-20T15:14:43.910Z,3440.00
2018-07-20T15:15:43.837Z,3308.00
2018-07-20T15:17:36.666Z,3284.00
2018-07-20T15:18:36.594Z,3248.00
2018-07-20T15:20:29.445Z,3124.00
2018-07-20T15:21:29.334Z,3044.00
2018-07-20T15:23:22.197Z,2788.00
2018-07-20T15:24:22.077Z,2676.00
2018-07-20T15:26:14.959Z,2540.00
2018-07-20T15:27:14.849Z,2548.00
2018-07-20T15:29:08.206Z,2636.00
2018-07-20T15:30:08.094Z,2696.00
2018-07-20T15:32:00.943Z,2700.00
2018-07-20T15:33:00.849Z,2764.00
2018-07-20T15:34:53.676Z,3252.00
2018-07-20T15:35:53.595Z,3508.00
2018-07-20T15:37:46.441Z,3664.00
2018-07-20T15:38:46.353Z,3548.00
2018-07-20T15:40:39.187Z,3200.00
2018-07-20T15:41:39.103Z,3172.00
2018-07-20T15:43:31.945Z,3288.00
2018-07-20T15:44:31.836Z,3268.00
2018-07-20T15:46:24.736Z,3364.00
2018-07-20T15:47:24.649Z,3508.00
2018-07-20T15:49:17.448Z,3628.00
2018-07-20T15:50:17.336Z,3656.00
2018-07-20T15:53:37.733Z,3812.00
2018-07-20T15:55:02.913Z,4120.00
2018-07-20T15:56:02.836Z,4284.00
2018-07-20T15:57:55.684Z,4704.00
2018-07-20T15:58:55.582Z,4944.00
2018-07-20T16:00:48.436Z,5276.00
2018-07-20T16:01:48.331Z,5484.00
2018-07-20T16:03:41.178Z,5848.00
2018-07-20T16:04:41.083Z,6092.00
2018-07-20T16:06:33.946Z,6556.00
2018-07-20T16:07:33.839Z,6688.00
2018-07-20T16:09:26.673Z,6808.00
2018-07-20T16:10:26.596Z,6848.00
2018-07-20T16:12:19.450Z,6900.00
2018-07-20T16:13:19.338Z,6916.00
2018-07-20T16:15:12.175Z,7004.00
2018-07-20T16:16:12.085Z,7004.00
2018-07-20T16:18:04.928Z,7032.00
2018-07-20T16:19:04.858Z,7032.00
2018-07-20T16:20:57.696Z,7016.00
2018-07-20T16:21:57.625Z,6972.00
2018-07-20T16:23:50.485Z,6972.00
2018-07-20T16:24:50.362Z,6960.00
2018-07-20T16:26:44.180Z,7092.00
2018-07-20T16:27:44.114Z,7100.00
2018-07-20T16:29:36.975Z,7096.00
2018-07-20T16:30:36.850Z,7140.00
2018-07-20T16:32:29.681Z,7204.00
2018-07-20T16:33:29.597Z,7248.00
2018-07-20T16:35:22.448Z,7220.00
2018-07-20T16:36:22.355Z,7220.00
2018-07-20T16:38:15.183Z,7140.00
2018-07-20T16:39:15.128Z,7256.00
2018-07-20T16:41:08.025Z,7228.00
2018-07-20T16:42:07.856Z,7200.00
2018-07-20T16:44:00.720Z,7148.00
2018-07-20T16:45:00.616Z,7124.00
2018-07-20T16:46:53.431Z,7148.00
2018-07-20T16:47:53.361Z,7156.00
2018-07-20T16:49:46.300Z,7232.00
2018-07-20T16:50:46.203Z,7224.00
2018-07-20T16:52:39.048Z,7140.00
2018-07-20T16:53:38.967Z,7116.00
2018-07-20T16:55:31.845Z,7028.00
2018-07-20T16:56:31.717Z,7016.00
2018-07-20T16:58:24.552Z,6932.00
2018-07-20T16:59:24.455Z,6904.00
2018-07-20T17:01:17.416Z,6776.00
2018-07-20T17:02:17.319Z,6776.00
2018-07-20T17:04:10.203Z,6696.00
2018-07-20T17:05:10.069Z,6748.00
2018-07-20T17:07:03.198Z,6968.00
2018-07-20T17:08:02.911Z,7084.00
2018-07-20T17:09:55.776Z,7104.00
2018-07-20T17:10:55.698Z,7124.00
2018-07-20T17:12:48.516Z,7124.00
2018-07-20T17:13:48.410Z,7116.00
2018-07-20T17:15:41.798Z,7192.00
2018-07-20T17:16:41.181Z,7244.00
2018-07-20T17:18:41.587Z,7368.00
2018-07-20T17:19:41.677Z,7412.00
2018-07-20T17:21:34.340Z,7592.00
2018-07-20T17:22:34.266Z,7780.00
2018-07-20T17:24:27.303Z,16064.00
2018-07-20T17:25:27.191Z,26752.00
2018-07-20T17:27:20.152Z,35520.00
2018-07-20T17:28:20.270Z,33024.00
2018-07-20T17:30:34.415Z,27296.00
2018-07-20T17:31:12.823Z,22784.00
2018-07-20T17:33:05.790Z,17344.00
2018-07-20T17:34:05.643Z,12772.00
2018-07-20T17:35:58.483Z,8380.00
2018-07-20T17:36:58.427Z,6672.00
2018-07-20T17:38:51.332Z,5288.00
2018-07-20T17:39:51.240Z,4824.00
2018-07-20T17:41:44.092Z,3864.00
2018-07-20T17:42:43.989Z,3592.00
2018-07-20T17:44:36.815Z,3668.00
2018-07-20T17:45:36.744Z,3964.00
2018-07-20T17:47:29.604Z,4652.00
2018-07-20T17:48:29.488Z,4700.00